createdAt,value
2018-11-03T00:00:52.209Z,12.70
2018-11-03T00:03:19.529Z,11.73
2018-11-03T00:05:46.869Z,12.43
2018-11-03T00:08:14.044Z,10.33
2018-11-03T00:10:41.249Z,9.43
2018-11-03T00:13:08.524Z,10.43
2018-11-03T00:15:36.209Z,10.30
2018-11-03T00:18:04.230Z,11.00
2018-11-03T00:20:31.453Z,10.63
2018-11-03T00:22:58.635Z,10.63
2018-11-03T00:25:26.009Z,10.43
2018-11-03T00:27:53.213Z,10.30
2018-11-03T00:30:20.884Z,11.13
2018-11-03T00:32:48.520Z,11.23
2018-11-03T00:35:15.766Z,11.10
2018-11-03T00:37:42.931Z,12.30
2018-11-03T00:40:12.317Z,11.13
2018-11-03T00:42:39.547Z,10.30
2018-11-03T00:45:07.912Z,10.87
2018-11-03T00:47:35.149Z,10.37
2018-11-03T00:50:02.331Z,10.40
2018-11-03T00:52:29.525Z,10.30
2018-11-03T00:54:56.924Z,12.03
2018-11-03T00:57:24.098Z,10.90
2018-11-03T00:59:51.328Z,11.33
2018-11-03T01:02:18.553Z,13.30
2018-11-03T01:04:45.724Z,11.90
2018-11-03T01:07:12.976Z,10.03
2018-11-03T01:09:40.237Z,9.53
2018-11-03T01:12:07.408Z,9.50
2018-11-03T01:14:34.581Z,9.63
2018-11-03T01:17:01.818Z,10.97
2018-11-03T01:19:28.960Z,11.33
2018-11-03T01:21:56.155Z,11.10
2018-11-03T01:24:23.346Z,11.57
2018-11-03T01:26:50.548Z,12.57
2018-11-03T01:29:17.700Z,11.97
2018-11-03T01:31:44.915Z,11.10
2018-11-03T01:34:12.073Z,12.07
2018-11-03T01:36:39.240Z,10.60
2018-11-03T01:39:08.802Z,9.90
2018-11-03T01:41:35.980Z,9.53
2018-11-03T01:44:03.180Z,9.43
2018-11-03T01:46:30.407Z,10.07
2018-11-03T01:48:57.571Z,10.77
2018-11-03T01:51:24.742Z,10.90
2018-11-03T01:53:52.069Z,10.10
2018-11-03T01:56:19.256Z,10.20
2018-11-03T01:58:46.389Z,10.37
2018-11-03T02:01:13.664Z,11.23
2018-11-03T02:03:40.995Z,11.83
2018-11-03T02:06:08.197Z,12.50
2018-11-03T02:08:35.424Z,13.07
2018-11-03T02:11:02.596Z,13.23
2018-11-03T02:13:29.743Z,13.47
2018-11-03T02:15:56.978Z,12.73
2018-11-03T02:18:24.129Z,12.53
2018-11-03T02:20:51.299Z,13.43
2018-11-03T02:23:18.500Z,13.53
2018-11-03T02:25:45.659Z,12.83
2018-11-03T02:28:12.822Z,12.97
2018-11-03T02:30:40.064Z,13.63
2018-11-03T02:33:07.281Z,14.63
2018-11-03T02:35:34.436Z,13.17
2018-11-03T02:38:01.789Z,13.70
2018-11-03T02:40:28.960Z,14.23
2018-11-03T02:42:56.171Z,14.03
2018-11-03T02:45:23.405Z,15.83
2018-11-03T02:47:50.604Z,16.10
2018-11-03T02:50:21.826Z,18.70
2018-11-03T02:52:53.421Z,17.57
2018-11-03T02:55:23.644Z,16.67
2018-11-03T02:57:54.926Z,17.60
2018-11-03T03:00:23.412Z,17.83
2018-11-03T03:02:52.892Z,17.77
2018-11-03T03:05:24.548Z,17.07
2018-11-03T03:07:55.369Z,17.80
2018-11-03T03:10:25.576Z,19.90
2018-11-03T03:12:58.234Z,20.20
2018-11-03T03:15:28.570Z,20.43
2018-11-03T03:17:55.745Z,20.13
2018-11-03T03:20:22.936Z,26.77
2018-11-03T03:22:50.149Z,30.77
2018-11-03T03:25:17.297Z,25.73
2018-11-03T03:27:44.452Z,30.63
2018-11-03T03:30:11.767Z,30.00
2018-11-03T03:32:39.124Z,28.27
2018-11-03T03:35:06.405Z,27.10
2018-11-03T03:37:33.587Z,27.27
2018-11-03T03:40:00.744Z,26.27
2018-11-03T03:42:27.952Z,26.87
2018-11-03T03:44:55.141Z,26.03
2018-11-03T03:47:22.356Z,25.87
2018-11-03T03:49:49.527Z,25.77
2018-11-03T03:52:16.744Z,26.50
2018-11-03T03:54:44.718Z,25.83
2018-11-03T03:57:11.911Z,25.63
2018-11-03T03:59:39.132Z,26.97
2018-11-03T04:02:06.320Z,26.17
2018-11-03T04:04:33.479Z,26.63
2018-11-03T04:07:00.780Z,26.33
2018-11-03T04:09:27.939Z,25.10
2018-11-03T04:11:55.101Z,26.23
2018-11-03T04:14:22.383Z,25.70
2018-11-03T04:16:49.704Z,26.27
2018-11-03T04:19:16.896Z,26.07
2018-11-03T04:21:44.125Z,26.97
2018-11-03T04:24:11.303Z,23.83
2018-11-03T04:26:38.472Z,25.87
2018-11-03T04:29:05.704Z,25.77
2018-11-03T04:31:32.840Z,23.87
2018-11-03T04:34:00.005Z,25.90
2018-11-03T04:36:27.226Z,26.67
2018-11-03T04:38:54.492Z,25.93
2018-11-03T04:41:21.645Z,25.87
2018-11-03T04:43:49.079Z,25.67
2018-11-03T04:46:16.226Z,25.50
2018-11-03T04:48:43.389Z,25.13
2018-11-03T04:51:10.585Z,25.70
2018-11-03T04:53:37.824Z,25.87
2018-11-03T04:56:05.021Z,26.50
2018-11-03T04:58:32.338Z,25.30
2018-11-03T05:00:59.526Z,25.27
2018-11-03T05:03:26.963Z,23.80
2018-11-03T05:05:54.213Z,24.43
2018-11-03T05:08:21.341Z,23.53
2018-11-03T05:10:48.505Z,23.43
2018-11-03T05:13:15.702Z,23.80
2018-11-03T05:15:42.943Z,23.70
2018-11-03T05:18:10.068Z,23.83
2018-11-03T05:20:37.506Z,25.17
2018-11-03T05:23:04.701Z,24.00
2018-11-03T05:25:31.886Z,23.70
2018-11-03T05:27:59.161Z,24.97
2018-11-03T05:30:26.353Z,27.27
2018-11-03T05:32:53.607Z,27.80
2018-11-03T05:35:20.832Z,29.07
2018-11-03T05:37:47.964Z,27.63
2018-11-03T05:40:15.118Z,26.67
2018-11-03T05:42:42.404Z,24.93
2018-11-03T05:45:09.578Z,25.20
2018-11-03T05:47:36.740Z,26.80
2018-11-03T05:50:05.028Z,26.50
2018-11-03T05:52:32.214Z,25.13
2018-11-03T05:54:59.340Z,25.93
2018-11-03T05:57:26.568Z,25.77
2018-11-03T05:59:53.737Z,25.70
2018-11-03T06:02:20.910Z,25.40
2018-11-03T06:04:48.210Z,25.27
2018-11-03T06:07:15.342Z,24.73
2018-11-03T06:09:42.485Z,25.17
2018-11-03T06:12:09.676Z,26.63
2018-11-03T06:14:36.832Z,26.20
2018-11-03T06:17:04.074Z,24.40
2018-11-03T06:19:31.281Z,24.67
2018-11-03T06:21:58.439Z,24.60
2018-11-03T06:24:25.601Z,25.20
2018-11-03T06:26:52.885Z,24.00
2018-11-03T06:29:20.119Z,25.10
2018-11-03T06:31:47.288Z,24.20
2018-11-03T06:34:14.541Z,24.43
2018-11-03T06:36:41.688Z,25.77
2018-11-03T06:39:09.046Z,24.83
2018-11-03T06:41:36.336Z,26.07
2018-11-03T06:44:03.553Z,27.37
2018-11-03T06:46:30.760Z,25.30
2018-11-03T06:49:03.704Z,24.83
2018-11-03T06:51:31.248Z,25.90
2018-11-03T06:53:58.921Z,25.73
2018-11-03T06:56:26.108Z,25.27
2018-11-03T06:58:53.253Z,24.87
2018-11-03T07:01:20.418Z,25.03
2018-11-03T07:03:47.789Z,25.77
2018-11-03T07:06:14.955Z,26.87
2018-11-03T07:08:42.123Z,26.73
2018-11-03T07:11:09.321Z,26.90
2018-11-03T07:13:37.549Z,25.77
2018-11-03T07:16:05.335Z,26.03
2018-11-03T07:18:32.515Z,25.30
2018-11-03T07:20:59.656Z,25.87
2018-11-03T07:23:26.853Z,24.63
2018-11-03T07:25:54.062Z,24.07
2018-11-03T07:28:21.212Z,25.27
2018-11-03T07:30:48.484Z,24.47
2018-11-03T07:33:15.668Z,25.50
2018-11-03T07:35:42.821Z,24.67
2018-11-03T07:38:10.041Z,24.47
2018-11-03T07:40:37.298Z,24.17
2018-11-03T07:43:04.557Z,24.80
2018-11-03T07:45:31.709Z,24.27
2018-11-03T07:47:58.932Z,25.90
2018-11-03T07:50:26.076Z,25.17
2018-11-03T07:52:53.252Z,24.43
2018-11-03T07:55:20.601Z,24.07
2018-11-03T07:57:47.761Z,23.93
2018-11-03T08:00:14.941Z,24.57
2018-11-03T08:02:42.148Z,24.17
2018-11-03T08:05:10.740Z,24.60
2018-11-03T08:07:37.981Z,24.27
2018-11-03T08:10:06.113Z,23.97
2018-11-03T08:12:33.237Z,25.50
2018-11-03T08:15:00.366Z,24.13
2018-11-03T08:17:29.620Z,25.10
2018-11-03T08:19:56.800Z,23.83
2018-11-03T08:22:23.938Z,24.80
2018-11-03T08:24:51.232Z,24.00
2018-11-03T08:27:18.391Z,24.40
2018-11-03T08:29:45.604Z,25.60
2018-11-03T08:32:12.821Z,25.43
2018-11-03T08:34:39.981Z,25.30
2018-11-03T08:37:07.115Z,24.87
2018-11-03T08:39:34.295Z,24.97
2018-11-03T08:42:01.429Z,25.20
2018-11-03T08:44:28.565Z,25.40
2018-11-03T08:46:55.748Z,24.20
2018-11-03T08:49:22.879Z,25.57
2018-11-03T08:51:51.069Z,23.80
2018-11-03T08:54:18.273Z,24.43
2018-11-03T08:56:45.456Z,24.07
2018-11-03T08:59:12.613Z,23.97
2018-11-03T09:01:39.804Z,23.83
2018-11-03T09:04:06.936Z,24.40
2018-11-03T09:06:34.090Z,23.90
2018-11-03T09:09:01.281Z,23.60
2018-11-03T09:11:28.420Z,24.20
2018-11-03T09:13:55.551Z,25.10
2018-11-03T09:16:22.749Z,24.80
2018-11-03T09:18:49.901Z,25.40
2018-11-03T09:21:17.046Z,25.63
2018-11-03T09:23:44.233Z,25.20
2018-11-03T09:26:11.353Z,26.10
2018-11-03T09:28:38.506Z,25.17
2018-11-03T09:31:05.742Z,24.63
2018-11-03T09:33:32.885Z,25.43
2018-11-03T09:36:00.003Z,23.80
2018-11-03T09:38:27.179Z,25.33
2018-11-03T09:40:54.322Z,25.60
2018-11-03T09:43:21.505Z,24.13
2018-11-03T09:45:48.706Z,24.97
2018-11-03T09:48:15.832Z,24.10
2018-11-03T09:50:43.166Z,24.93
2018-11-03T09:53:10.170Z,24.87
2018-11-03T09:55:37.315Z,24.37
2018-11-03T09:58:04.588Z,25.77
2018-11-03T10:00:31.785Z,24.43
2018-11-03T10:02:58.953Z,25.40
2018-11-03T10:05:26.075Z,24.83
2018-11-03T10:07:53.268Z,25.93
2018-11-03T10:10:20.511Z,24.73
2018-11-03T10:12:47.650Z,25.53
2018-11-03T10:15:16.185Z,26.27
2018-11-03T10:17:43.881Z,26.80
2018-11-03T10:20:11.032Z,24.97
2018-11-03T10:22:38.480Z,24.70
2018-11-03T10:25:17.285Z,25.03
2018-11-03T10:27:44.915Z,25.10
2018-11-03T10:30:13.046Z,24.27
2018-11-03T10:32:40.722Z,24.37
2018-11-03T10:35:08.720Z,24.43
2018-11-03T10:37:36.141Z,24.63
2018-11-03T10:40:03.777Z,24.70
2018-11-03T10:42:30.999Z,24.63
2018-11-03T10:44:58.144Z,24.80
2018-11-03T10:47:25.302Z,24.27
2018-11-03T10:49:52.533Z,25.23
2018-11-03T10:52:19.739Z,24.23
2018-11-03T10:54:46.955Z,21.60
2018-11-03T10:57:14.148Z,19.03
2018-11-03T10:59:41.285Z,19.17
2018-11-03T11:02:14.254Z,20.97
2018-11-03T11:04:47.165Z,20.03
2018-11-03T11:07:20.017Z,19.60
2018-11-03T11:10:55.406Z,19.80
2018-11-03T11:13:24.339Z,20.77
2018-11-03T11:15:52.886Z,20.23
2018-11-03T11:18:20.050Z,20.60
2018-11-03T11:20:47.217Z,19.53
2018-11-03T11:23:14.403Z,19.53
2018-11-03T11:25:41.517Z,20.13
2018-11-03T11:28:08.791Z,18.83
2018-11-03T11:30:37.262Z,19.67
2018-11-03T11:33:06.028Z,19.23
2018-11-03T11:35:33.267Z,17.67
2018-11-03T11:38:00.504Z,16.20
2018-11-03T11:40:27.635Z,17.13
2018-11-03T11:42:54.866Z,17.13
2018-11-03T11:45:22.016Z,18.47
2018-11-03T11:47:49.187Z,16.00
2018-11-03T11:50:16.414Z,17.57
2018-11-03T11:52:43.576Z,18.90
2018-11-03T11:55:10.745Z,18.13
2018-11-03T11:57:37.957Z,18.10
2018-11-03T12:00:05.310Z,19.20
2018-11-03T12:02:32.550Z,18.33
2018-11-03T12:04:59.689Z,19.63
2018-11-03T12:07:26.841Z,17.53
2018-11-03T12:09:54.104Z,14.00
2018-11-03T12:12:21.262Z,12.93
2018-11-03T12:14:48.561Z,13.53
2018-11-03T12:17:15.688Z,13.37
2018-11-03T12:19:42.903Z,14.90
2018-11-03T12:22:10.054Z,13.67
2018-11-03T12:24:37.230Z,13.63
2018-11-03T12:27:04.629Z,13.40
2018-11-03T12:29:31.807Z,12.93
2018-11-03T12:31:58.976Z,12.30
2018-11-03T12:34:26.212Z,11.60
2018-11-03T12:36:53.373Z,11.33
2018-11-03T12:39:20.614Z,11.73
2018-11-03T12:41:47.838Z,10.57
2018-11-03T12:44:14.986Z,10.07
2018-11-03T12:46:42.136Z,10.97
2018-11-03T12:49:09.374Z,11.83
2018-11-03T12:51:36.547Z,11.13
2018-11-03T12:54:03.779Z,10.43
2018-11-03T12:56:31.029Z,11.57
2018-11-03T12:58:58.179Z,9.87
2018-11-03T13:01:25.385Z,10.27
2018-11-03T13:03:52.548Z,9.73
2018-11-03T13:06:19.763Z,9.73
2018-11-03T13:08:46.914Z,9.17
2018-11-03T13:11:14.129Z,10.40
2018-11-03T13:13:41.279Z,9.63
2018-11-03T13:16:08.433Z,9.93
2018-11-03T13:18:35.630Z,9.07
2018-11-03T13:21:02.789Z,8.47
2018-11-03T13:23:30.093Z,7.43
2018-11-03T13:25:57.301Z,8.70
2018-11-03T13:28:24.458Z,8.73
2018-11-03T13:30:51.604Z,8.43
2018-11-03T13:33:18.798Z,8.57
2018-11-03T13:35:45.961Z,8.53
2018-11-03T13:38:13.216Z,8.37
2018-11-03T13:40:40.510Z,8.37
2018-11-03T13:43:07.656Z,7.83
2018-11-03T13:45:34.810Z,8.20
2018-11-03T13:48:02.041Z,8.33
2018-11-03T13:50:29.214Z,7.43
2018-11-03T13:52:56.449Z,8.10
2018-11-03T13:55:23.663Z,8.43
2018-11-03T13:57:50.801Z,8.30
2018-11-03T14:00:18.612Z,8.33
2018-11-03T14:02:46.726Z,9.43
2018-11-03T14:05:13.952Z,9.23
2018-11-03T14:07:41.129Z,9.20
2018-11-03T14:10:10.764Z,8.97
2018-11-03T14:12:37.899Z,8.10
2018-11-03T14:15:05.897Z,8.63
2018-11-03T14:17:33.109Z,8.67
2018-11-03T14:20:00.279Z,8.80
2018-11-03T14:22:27.422Z,9.13
2018-11-03T14:24:54.637Z,8.43
2018-11-03T14:27:21.788Z,8.10
2018-11-03T14:29:48.925Z,8.57
2018-11-03T14:32:16.143Z,8.43
2018-11-03T14:34:43.292Z,8.50
2018-11-03T14:37:10.451Z,8.43
2018-11-03T14:39:37.723Z,8.83
2018-11-03T14:42:05.065Z,8.27
2018-11-03T14:44:32.240Z,8.43
2018-11-03T14:46:59.458Z,7.77
2018-11-03T14:49:26.604Z,8.03
2018-11-03T14:51:53.745Z,7.77
2018-11-03T14:54:20.973Z,8.17
2018-11-03T14:56:48.251Z,7.97
2018-11-03T14:59:15.345Z,8.17
2018-11-03T15:01:42.541Z,7.70
2018-11-03T15:04:09.777Z,8.77
2018-11-03T15:06:37.024Z,7.80
2018-11-03T15:09:05.928Z,7.27
2018-11-03T15:11:33.104Z,7.70
2018-11-03T15:14:00.373Z,6.73
2018-11-03T15:16:28.317Z,6.50
2018-11-03T15:18:55.493Z,7.00
2018-11-03T15:21:22.637Z,7.90
2018-11-03T15:23:49.838Z,7.03
2018-11-03T15:26:16.969Z,6.70
2018-11-03T15:28:44.124Z,6.70
2018-11-03T15:31:11.393Z,7.37
2018-11-03T15:33:38.687Z,7.83
2018-11-03T15:36:05.860Z,7.17
2018-11-03T15:38:33.060Z,7.30
2018-11-03T15:41:00.199Z,7.93
2018-11-03T15:43:27.362Z,7.87
2018-11-03T15:45:54.532Z,9.00
2018-11-03T15:48:21.693Z,8.17
2018-11-03T15:50:50.173Z,7.97
2018-11-03T15:53:17.427Z,8.83
2018-11-03T15:55:44.574Z,9.20
2018-11-03T15:58:11.708Z,8.23
2018-11-03T16:00:38.904Z,8.87
2018-11-03T16:03:06.094Z,8.27
2018-11-03T16:05:33.234Z,7.67
2018-11-03T16:08:00.525Z,8.53
2018-11-03T16:10:27.664Z,9.87
2018-11-03T16:12:54.836Z,9.77
2018-11-03T16:15:22.021Z,9.80
2018-11-03T16:17:49.147Z,10.63
2018-11-03T16:20:16.398Z,9.70
2018-11-03T16:22:43.875Z,10.03
2018-11-03T16:25:10.976Z,11.00
2018-11-03T16:27:38.831Z,12.17
2018-11-03T16:30:08.389Z,12.80
2018-11-03T16:32:35.716Z,12.30
2018-11-03T16:35:02.719Z,11.13
2018-11-03T16:37:29.995Z,10.83
2018-11-03T16:39:57.144Z,10.13
2018-11-03T16:42:24.279Z,10.33
2018-11-03T16:44:51.535Z,11.80
2018-11-03T16:47:18.684Z,12.70
2018-11-03T16:49:45.828Z,12.77
2018-11-03T16:52:13.022Z,12.07
2018-11-03T16:54:40.420Z,12.37
2018-11-03T16:57:07.594Z,12.33
2018-11-03T16:59:35.206Z,12.47
2018-11-03T17:02:02.808Z,12.87
2018-11-03T17:04:30.026Z,12.23
2018-11-03T17:06:57.683Z,11.63
2018-11-03T17:09:25.664Z,11.80
2018-11-03T17:11:53.524Z,15.33
2018-11-03T17:14:21.257Z,16.23
2018-11-03T17:16:49.111Z,17.83
2018-11-03T17:19:16.725Z,17.93
2018-11-03T17:21:44.774Z,20.27
2018-11-03T17:24:12.423Z,19.07
2018-11-03T17:26:41.873Z,19.97
2018-11-03T17:29:09.769Z,19.93
2018-11-03T17:31:37.671Z,19.30
2018-11-03T17:34:05.731Z,18.73
2018-11-03T17:36:33.748Z,21.13
2018-11-03T17:39:01.585Z,20.37
2018-11-03T17:41:30.253Z,20.27
2018-11-03T17:43:58.383Z,21.53
2018-11-03T17:46:25.549Z,18.43
2018-11-03T17:48:52.864Z,19.47
2018-11-03T17:51:20.354Z,20.27
2018-11-03T17:53:47.495Z,17.97
2018-11-03T17:56:15.128Z,19.10
2018-11-03T17:58:42.621Z,17.93
2018-11-03T18:01:10.181Z,17.20
2018-11-03T18:03:37.712Z,16.37
2018-11-03T18:06:05.536Z,15.73
2018-11-03T18:08:33.213Z,16.63
2018-11-03T18:11:01.018Z,17.10
2018-11-03T18:13:28.863Z,17.27
2018-11-03T18:15:56.056Z,16.37
2018-11-03T18:18:23.209Z,17.90
2018-11-03T18:20:50.460Z,16.57
2018-11-03T18:23:17.766Z,17.37
2018-11-03T18:25:44.899Z,17.63
2018-11-03T18:28:12.140Z,17.77
2018-11-03T18:30:39.337Z,16.27
2018-11-03T18:33:06.523Z,16.77
2018-11-03T18:35:33.864Z,17.83
2018-11-03T18:38:01.065Z,16.00
2018-11-03T18:40:28.165Z,17.73
2018-11-03T18:42:55.457Z,18.00
2018-11-03T18:45:22.588Z,19.77
2018-11-03T18:47:49.839Z,19.63
2018-11-03T18:50:17.086Z,20.53
2018-11-03T18:52:44.276Z,19.77
2018-11-03T18:55:12.322Z,19.93
2018-11-03T18:57:40.548Z,19.63
2018-11-03T19:00:08.785Z,18.63
2018-11-03T19:02:46.285Z,17.83
2018-11-03T19:05:13.437Z,18.93
2018-11-03T19:07:40.594Z,18.63
2018-11-03T19:10:08.307Z,18.63
2018-11-03T19:12:35.473Z,18.87
2018-11-03T19:15:02.676Z,20.07
2018-11-03T19:17:29.917Z,19.37
2018-11-03T19:19:57.037Z,19.93
2018-11-03T19:22:24.185Z,19.33
2018-11-03T19:24:51.459Z,19.43
2018-11-03T19:27:18.595Z,19.33
2018-11-03T19:29:45.898Z,18.87
2018-11-03T19:32:13.059Z,17.57
2018-11-03T19:34:40.165Z,19.50
2018-11-03T19:37:07.309Z,25.63
2018-11-03T19:39:34.583Z,23.97
2018-11-03T19:42:01.806Z,22.17
2018-11-03T19:44:28.977Z,23.10
2018-11-03T19:46:56.253Z,22.07
2018-11-03T19:49:23.397Z,24.47
2018-11-03T19:51:50.876Z,24.63
2018-11-03T19:54:18.037Z,25.87
2018-11-03T19:56:45.262Z,25.77
2018-11-03T19:59:12.417Z,29.07
2018-11-03T20:01:39.615Z,23.77
2018-11-03T20:04:06.853Z,25.63
2018-11-03T20:06:34.042Z,26.50
2018-11-03T20:09:01.324Z,26.60
2018-11-03T20:11:28.564Z,25.60
2018-11-03T20:13:55.887Z,26.83
2018-11-03T20:16:23.316Z,27.70
2018-11-03T20:18:50.528Z,25.23
2018-11-03T20:21:17.863Z,26.47
2018-11-03T20:23:45.205Z,26.47
2018-11-03T20:26:12.460Z,24.97
2018-11-03T20:28:39.624Z,24.93
2018-11-03T20:31:06.865Z,25.73
2018-11-03T20:33:34.024Z,26.07
2018-11-03T20:36:01.198Z,25.80
2018-11-03T20:38:28.380Z,23.60
2018-11-03T20:40:55.542Z,25.03
2018-11-03T20:43:22.676Z,25.37
2018-11-03T20:45:49.908Z,26.20
2018-11-03T20:48:17.057Z,27.40
2018-11-03T20:50:44.272Z,23.23
2018-11-03T20:53:11.513Z,25.90
2018-11-03T20:55:38.647Z,26.07
2018-11-03T20:58:05.828Z,27.67
2018-11-03T21:00:33.076Z,27.10
2018-11-03T21:03:00.228Z,25.50
2018-11-03T21:05:27.403Z,25.33
2018-11-03T21:07:54.754Z,25.87
2018-11-03T21:10:21.880Z,25.40
2018-11-03T21:12:49.046Z,27.63
2018-11-03T21:15:16.276Z,24.30
2018-11-03T21:17:43.432Z,24.40
2018-11-03T21:20:10.601Z,23.33
2018-11-03T21:22:37.825Z,23.40
2018-11-03T21:25:05.017Z,23.67
2018-11-03T21:27:32.240Z,24.23
2018-11-03T21:29:59.502Z,22.63
2018-11-03T21:32:26.742Z,23.00
2018-11-03T21:34:53.834Z,23.27
2018-11-03T21:37:21.087Z,24.10
2018-11-03T21:39:48.258Z,24.80
2018-11-03T21:42:15.421Z,23.70
2018-11-03T21:44:42.628Z,24.83
2018-11-03T21:47:09.855Z,24.40
2018-11-03T21:49:37.016Z,23.93
2018-11-03T21:52:04.637Z,23.10
2018-11-03T21:54:31.796Z,23.87
2018-11-03T21:56:58.982Z,25.07
2018-11-03T21:59:26.264Z,24.10
2018-11-03T22:01:53.428Z,25.13
2018-11-03T22:04:20.572Z,24.30
2018-11-03T22:06:47.777Z,23.03
2018-11-03T22:09:14.935Z,23.27
2018-11-03T22:11:42.097Z,24.93
2018-11-03T22:14:09.364Z,25.30
2018-11-03T22:16:36.526Z,27.23
2018-11-03T22:19:03.720Z,24.67
2018-11-03T22:21:31.256Z,23.93
2018-11-03T22:23:58.592Z,24.30
2018-11-03T22:26:25.806Z,25.97
2018-11-03T22:28:53.213Z,24.03
2018-11-03T22:31:20.366Z,23.87
2018-11-03T22:33:47.526Z,24.87
2018-11-03T22:36:14.739Z,23.43
2018-11-03T22:38:41.929Z,25.13
2018-11-03T22:41:09.160Z,24.73
2018-11-03T22:43:36.381Z,25.70
2018-11-03T22:46:03.806Z,22.63
2018-11-03T22:48:30.944Z,22.63
2018-11-03T22:50:58.145Z,23.23
2018-11-03T22:53:25.407Z,22.97
2018-11-03T22:55:52.572Z,23.80
2018-11-03T22:58:19.793Z,22.77
2018-11-03T23:00:52.638Z,21.93
2018-11-03T23:03:19.856Z,22.97
2018-11-03T23:05:47.036Z,24.00
2018-11-03T23:08:14.188Z,23.87
2018-11-03T23:10:41.419Z,21.93
2018-11-03T23:13:08.712Z,21.73
2018-11-03T23:15:35.841Z,23.33
2018-11-03T23:18:03.170Z,22.63
2018-11-03T23:20:31.061Z,23.37
2018-11-03T23:22:58.228Z,22.17
2018-11-03T23:25:25.794Z,22.17
2018-11-03T23:27:53.077Z,22.67
2018-11-03T23:30:20.368Z,24.63
2018-11-03T23:32:47.738Z,22.70
2018-11-03T23:35:14.964Z,22.57
2018-11-03T23:37:43.032Z,25.23
2018-11-03T23:40:10.804Z,24.70
2018-11-03T23:42:37.971Z,24.93
2018-11-03T23:45:06.001Z,25.83
2018-11-03T23:47:33.200Z,25.07
2018-11-03T23:50:00.352Z,24.77
2018-11-03T23:52:33.064Z,25.60
2018-11-03T23:55:01.085Z,24.57
2018-11-03T23:57:28.667Z,25.37
2018-11-03T23:59:55.930Z,24.83
